createdAt,value
2017-07-14T00:01:35.269Z,15.23
2017-07-14T00:04:04.360Z,15.17
2017-07-14T00:06:33.403Z,15.17
2017-07-14T00:09:02.475Z,15.17
2017-07-14T00:11:31.544Z,15.16
2017-07-14T00:14:00.615Z,15.20
2017-07-14T00:16:29.681Z,15.19
2017-07-14T00:18:58.737Z,15.19
2017-07-14T00:21:27.820Z,15.17
2017-07-14T00:23:56.863Z,15.16
2017-07-14T00:26:26.672Z,15.14
2017-07-14T00:28:55.785Z,15.16
2017-07-14T00:31:24.868Z,15.20
2017-07-14T00:33:53.923Z,15.19
2017-07-14T00:36:22.995Z,15.18
2017-07-14T00:38:52.749Z,15.14
2017-07-14T00:41:21.819Z,15.14
2017-07-14T00:43:50.866Z,15.17
2017-07-14T00:46:19.908Z,15.16
2017-07-14T00:48:49.006Z,15.18
2017-07-14T00:51:18.045Z,15.15
2017-07-14T00:53:47.211Z,15.16
2017-07-14T00:56:16.281Z,15.18
2017-07-14T00:58:45.384Z,15.12
2017-07-14T01:01:14.561Z,15.13
2017-07-14T01:03:43.619Z,15.16
2017-07-14T01:06:13.437Z,15.21
2017-07-14T01:08:42.509Z,15.21
2017-07-14T01:11:12.352Z,15.20
2017-07-14T01:13:42.160Z,15.23
2017-07-14T01:16:11.227Z,15.14
2017-07-14T01:18:41.060Z,15.07
2017-07-14T01:21:10.157Z,15.02
2017-07-14T01:23:39.961Z,15.08
2017-07-14T01:26:09.788Z,15.05
2017-07-14T01:28:39.155Z,15.02
2017-07-14T01:31:08.208Z,15.01
2017-07-14T01:33:37.255Z,15.06
2017-07-14T01:36:07.118Z,15.07
2017-07-14T01:38:36.177Z,15.10
2017-07-14T01:41:06.797Z,15.08
2017-07-14T01:43:36.661Z,15.07
2017-07-14T01:46:05.761Z,15.10
2017-07-14T01:48:34.844Z,15.13
2017-07-14T01:51:03.961Z,15.08
2017-07-14T01:53:33.024Z,15.09
2017-07-14T01:56:02.195Z,15.05
2017-07-14T01:58:31.244Z,15.03
2017-07-14T02:01:00.314Z,14.99
2017-07-14T02:03:29.393Z,14.96
2017-07-14T02:05:59.200Z,14.87
2017-07-14T02:08:28.277Z,14.76
2017-07-14T02:10:57.697Z,14.71
2017-07-14T02:13:26.744Z,14.58
2017-07-14T02:15:55.824Z,14.55
2017-07-14T02:18:24.893Z,14.54
2017-07-14T02:20:53.965Z,14.50
2017-07-14T02:23:23.786Z,14.48
2017-07-14T02:25:53.720Z,14.47
2017-07-14T02:28:22.800Z,14.40
2017-07-14T02:30:52.661Z,14.35
2017-07-14T02:33:21.724Z,14.24
2017-07-14T02:35:50.787Z,14.18
2017-07-14T02:38:19.858Z,14.17
2017-07-14T02:40:48.918Z,14.17
2017-07-14T02:43:17.988Z,14.15
2017-07-14T02:45:47.816Z,14.15
2017-07-14T02:48:16.932Z,13.91
2017-07-14T02:50:46.004Z,13.88
2017-07-14T02:53:15.101Z,13.87
2017-07-14T02:55:44.905Z,13.78
2017-07-14T02:58:13.984Z,13.76
2017-07-14T03:00:43.847Z,13.76
2017-07-14T03:03:12.985Z,13.70
2017-07-14T03:05:42.048Z,13.62
2017-07-14T03:08:11.128Z,13.57
2017-07-14T03:10:40.201Z,13.60
2017-07-14T03:13:09.333Z,13.49
2017-07-14T03:15:38.408Z,13.48
2017-07-14T03:18:07.487Z,13.43
2017-07-14T03:20:37.935Z,13.43
2017-07-14T03:23:07.011Z,13.38
2017-07-14T03:25:36.077Z,13.39
2017-07-14T03:28:05.186Z,13.34
2017-07-14T03:30:34.256Z,13.34
2017-07-14T03:33:03.350Z,13.35
2017-07-14T03:35:32.428Z,13.32
2017-07-14T03:38:01.486Z,13.27
2017-07-14T03:40:30.564Z,13.27
2017-07-14T03:43:00.399Z,13.21
2017-07-14T03:45:29.460Z,13.15
2017-07-14T03:47:58.521Z,13.11
2017-07-14T03:50:27.841Z,13.11
2017-07-14T03:52:56.884Z,13.08
2017-07-14T03:55:25.965Z,13.10
2017-07-14T03:57:56.837Z,13.08
2017-07-14T04:00:26.015Z,13.12
2017-07-14T04:02:55.081Z,13.08
2017-07-14T04:05:24.941Z,13.04
2017-07-14T04:07:53.962Z,13.04
2017-07-14T04:10:23.106Z,13.09
2017-07-14T04:12:52.177Z,13.16
2017-07-14T04:15:22.026Z,13.22
2017-07-14T04:17:51.067Z,13.24
2017-07-14T04:20:20.099Z,13.19
2017-07-14T04:22:49.177Z,13.24
2017-07-14T04:25:19.078Z,13.27
2017-07-14T04:27:48.123Z,13.28
2017-07-14T04:30:17.408Z,13.36
2017-07-14T04:32:46.536Z,13.44
2017-07-14T04:35:15.605Z,13.46
2017-07-14T04:37:44.688Z,13.59
2017-07-14T04:40:13.816Z,13.63
2017-07-14T04:42:42.858Z,13.68
2017-07-14T04:45:11.940Z,13.72
2017-07-14T04:47:40.981Z,13.77
2017-07-14T04:50:10.055Z,13.85
2017-07-14T04:52:39.127Z,13.96
2017-07-14T04:55:08.196Z,14.03
2017-07-14T04:57:37.256Z,14.13
2017-07-14T05:00:06.353Z,14.22
2017-07-14T05:02:35.411Z,14.32
2017-07-14T05:05:04.488Z,14.36
2017-07-14T05:07:35.227Z,14.47
2017-07-14T05:10:04.349Z,14.52
2017-07-14T05:12:33.382Z,14.56
2017-07-14T05:15:02.428Z,14.60
2017-07-14T05:17:31.501Z,14.70
2017-07-14T05:20:00.569Z,14.83
2017-07-14T05:22:29.625Z,14.89
2017-07-14T05:24:59.717Z,14.99
2017-07-14T05:27:28.765Z,15.12
2017-07-14T05:29:57.825Z,15.29
2017-07-14T05:32:26.878Z,15.40
2017-07-14T05:34:55.964Z,15.44
2017-07-14T05:37:25.020Z,15.52
2017-07-14T05:39:54.864Z,15.61
2017-07-14T05:42:23.937Z,15.67
2017-07-14T05:44:53.758Z,15.74
2017-07-14T05:47:22.890Z,15.82
2017-07-14T05:49:52.197Z,15.87
2017-07-14T05:52:21.277Z,15.89
2017-07-14T05:54:50.328Z,15.96
2017-07-14T05:57:20.173Z,16.03
2017-07-14T05:59:49.220Z,16.06
2017-07-14T06:02:19.677Z,16.17
2017-07-14T06:04:48.736Z,16.22
2017-07-14T06:07:17.795Z,16.29
2017-07-14T06:09:46.847Z,16.40
2017-07-14T06:12:16.233Z,16.52
2017-07-14T06:14:45.296Z,16.61
2017-07-14T06:17:14.360Z,16.72
2017-07-14T06:19:43.483Z,16.78
2017-07-14T06:22:12.556Z,16.84
2017-07-14T06:24:41.627Z,16.99
2017-07-14T06:27:11.017Z,17.12
2017-07-14T06:29:40.104Z,17.19
2017-07-14T06:32:09.211Z,17.29
2017-07-14T06:34:38.259Z,17.36
2017-07-14T06:37:07.433Z,17.44
2017-07-14T06:39:36.794Z,17.58
2017-07-14T06:42:05.916Z,17.78
2017-07-14T06:44:34.998Z,17.91
2017-07-14T06:47:04.041Z,18.03
2017-07-14T06:49:33.088Z,18.22
2017-07-14T06:52:02.159Z,18.34
2017-07-14T06:54:31.247Z,18.53
2017-07-14T06:57:00.523Z,18.76
2017-07-14T06:59:29.611Z,18.93
2017-07-14T07:01:58.696Z,19.10
2017-07-14T07:04:27.796Z,19.16
2017-07-14T07:06:56.876Z,19.27
2017-07-14T07:09:25.956Z,19.38
2017-07-14T07:11:55.014Z,19.53
2017-07-14T07:14:24.068Z,19.67
2017-07-14T07:16:53.146Z,19.68
2017-07-14T07:19:22.209Z,19.74
2017-07-14T07:21:51.249Z,19.87
2017-07-14T07:24:20.303Z,19.99
2017-07-14T07:26:49.383Z,20.05
2017-07-14T07:29:18.428Z,20.26
2017-07-14T07:31:47.519Z,20.55
2017-07-14T07:34:16.580Z,20.72
2017-07-14T07:36:45.626Z,20.84
2017-07-14T07:39:14.879Z,20.82
2017-07-14T07:41:43.997Z,21.00
2017-07-14T07:44:13.095Z,21.11
2017-07-14T07:46:48.547Z,21.04
2017-07-14T07:49:22.998Z,21.03
2017-07-14T07:51:52.049Z,20.93
2017-07-14T07:54:21.107Z,20.91
2017-07-14T07:56:50.201Z,21.11
2017-07-14T07:59:19.281Z,21.32
2017-07-14T08:01:48.321Z,21.30
2017-07-14T08:04:17.404Z,21.41
2017-07-14T08:06:46.460Z,21.43
2017-07-14T08:09:15.528Z,21.46
2017-07-14T08:11:44.584Z,21.48
2017-07-14T08:14:13.684Z,21.61
2017-07-14T08:16:42.728Z,21.67
2017-07-14T08:19:11.816Z,21.86
2017-07-14T08:21:40.883Z,21.99
2017-07-14T08:24:10.009Z,22.15
2017-07-14T08:26:39.098Z,22.21
2017-07-14T08:29:08.341Z,22.14
2017-07-14T08:31:37.433Z,22.10
2017-07-14T08:34:06.488Z,22.26
2017-07-14T08:36:35.560Z,22.37
2017-07-14T08:39:04.751Z,22.51
2017-07-14T08:41:33.793Z,22.77
2017-07-14T08:44:02.904Z,23.03
2017-07-14T08:46:31.933Z,22.87
2017-07-14T08:49:00.985Z,22.68
2017-07-14T08:51:30.058Z,22.45
2017-07-14T08:53:59.126Z,22.16
2017-07-14T08:56:28.190Z,22.04
2017-07-14T08:58:57.239Z,22.00
2017-07-14T09:01:26.342Z,22.07
2017-07-14T09:03:55.392Z,22.19
2017-07-14T09:06:24.455Z,22.29
2017-07-14T09:08:53.530Z,22.41
2017-07-14T09:11:22.567Z,22.52
2017-07-14T09:13:51.627Z,22.47
2017-07-14T09:16:20.720Z,22.46
2017-07-14T09:18:49.801Z,22.64
2017-07-14T09:21:18.861Z,22.88
2017-07-14T09:23:47.921Z,22.84
2017-07-14T09:26:16.976Z,22.92
2017-07-14T09:28:46.035Z,23.09
2017-07-14T09:31:15.092Z,23.12
2017-07-14T09:33:44.159Z,23.21
2017-07-14T09:36:13.219Z,22.97
2017-07-14T09:38:42.301Z,22.73
2017-07-14T09:41:11.396Z,22.60
2017-07-14T09:43:40.456Z,22.71
2017-07-14T09:46:09.524Z,22.84
2017-07-14T09:48:38.573Z,22.94
2017-07-14T09:51:07.618Z,23.07
2017-07-14T09:53:36.680Z,23.02
2017-07-14T09:56:05.777Z,22.94
2017-07-14T09:58:34.847Z,22.74
2017-07-14T10:01:03.983Z,22.56
2017-07-14T10:03:33.131Z,22.71
2017-07-14T10:06:02.215Z,23.10
2017-07-14T10:08:31.257Z,23.31
2017-07-14T10:11:00.345Z,23.02
2017-07-14T10:13:29.397Z,23.16
2017-07-14T10:15:58.437Z,23.34
2017-07-14T10:18:27.499Z,23.55
2017-07-14T10:20:56.548Z,23.72
2017-07-14T10:23:25.604Z,24.04
2017-07-14T10:25:54.682Z,24.17
2017-07-14T10:28:23.737Z,23.90
2017-07-14T10:30:52.815Z,23.78
2017-07-14T10:33:21.893Z,23.68
2017-07-14T10:35:50.933Z,23.71
2017-07-14T10:38:20.002Z,23.81
2017-07-14T10:40:49.060Z,23.83
2017-07-14T10:43:18.164Z,23.69
2017-07-14T10:45:47.215Z,23.52
2017-07-14T10:48:16.291Z,23.38
2017-07-14T10:50:45.365Z,23.28
2017-07-14T10:53:14.468Z,23.29
2017-07-14T10:55:43.496Z,23.33
2017-07-14T10:58:12.575Z,23.18
2017-07-14T11:00:41.673Z,23.24
2017-07-14T11:03:10.740Z,23.09
2017-07-14T11:05:39.786Z,22.86
2017-07-14T11:08:09.039Z,22.72
2017-07-14T11:10:38.114Z,22.76
2017-07-14T11:13:07.172Z,22.94
2017-07-14T11:15:36.273Z,23.12
2017-07-14T11:18:05.355Z,23.15
2017-07-14T11:20:34.416Z,23.15
2017-07-14T11:23:03.533Z,23.31
2017-07-14T11:25:32.567Z,23.42
2017-07-14T11:28:01.648Z,23.55
2017-07-14T11:30:30.706Z,23.55
2017-07-14T11:32:59.960Z,23.43
2017-07-14T11:35:29.045Z,23.23
2017-07-14T11:37:58.316Z,23.15
2017-07-14T11:40:27.376Z,23.08
2017-07-14T11:42:56.444Z,22.92
2017-07-14T11:45:25.744Z,22.75
2017-07-14T11:47:54.788Z,22.84
2017-07-14T11:50:23.888Z,22.87
2017-07-14T11:52:52.977Z,22.80
2017-07-14T11:55:22.048Z,22.89
2017-07-14T11:57:51.088Z,23.00
2017-07-14T12:00:20.173Z,22.98
2017-07-14T12:02:49.229Z,22.95
2017-07-14T12:05:18.333Z,23.01
2017-07-14T12:07:47.390Z,22.91
2017-07-14T12:10:16.459Z,22.84
2017-07-14T12:12:45.533Z,22.88
2017-07-14T12:15:14.585Z,22.92
2017-07-14T12:17:43.639Z,23.02
2017-07-14T12:20:12.699Z,23.18
2017-07-14T12:22:41.752Z,23.13
2017-07-14T12:25:10.872Z,23.15
2017-07-14T12:27:39.960Z,23.14
2017-07-14T12:30:09.033Z,23.05
2017-07-14T12:32:38.081Z,23.02
2017-07-14T12:35:07.169Z,22.99
2017-07-14T12:37:36.237Z,22.96
2017-07-14T12:40:05.314Z,22.91
2017-07-14T12:42:34.355Z,22.87
2017-07-14T12:45:03.521Z,22.76
2017-07-14T12:47:32.587Z,22.67
2017-07-14T12:50:01.651Z,22.47
2017-07-14T12:52:31.201Z,22.44
2017-07-14T12:55:00.264Z,22.34
2017-07-14T12:57:29.335Z,22.21
2017-07-14T12:59:58.388Z,22.10
2017-07-14T13:02:27.469Z,22.15
2017-07-14T13:04:56.679Z,22.16
2017-07-14T13:07:25.740Z,22.09
2017-07-14T13:09:54.835Z,22.03
2017-07-14T13:12:23.871Z,21.91
2017-07-14T13:14:52.930Z,21.89
2017-07-14T13:17:22.023Z,21.84
2017-07-14T13:19:51.072Z,21.87
2017-07-14T13:22:20.112Z,21.91
2017-07-14T13:24:49.231Z,22.02
2017-07-14T13:27:18.273Z,22.08
2017-07-14T13:29:47.369Z,22.10
2017-07-14T13:32:16.457Z,22.14
2017-07-14T13:34:45.497Z,22.11
2017-07-14T13:37:14.615Z,22.27
2017-07-14T13:39:43.679Z,22.34
2017-07-14T13:42:12.949Z,22.35
2017-07-14T13:44:42.018Z,22.28
2017-07-14T13:47:11.105Z,22.21
2017-07-14T13:49:40.154Z,22.09
2017-07-14T13:52:09.189Z,21.94
2017-07-14T13:54:38.248Z,21.71
2017-07-14T13:57:07.325Z,21.51
2017-07-14T13:59:36.377Z,21.37
2017-07-14T14:02:05.506Z,21.13
2017-07-14T14:04:34.596Z,20.84
2017-07-14T14:07:03.659Z,20.26
2017-07-14T14:09:32.741Z,19.58
2017-07-14T14:12:01.841Z,19.26
2017-07-14T14:14:30.947Z,19.09
2017-07-14T14:16:59.998Z,18.93
2017-07-14T14:19:29.100Z,18.88
2017-07-14T14:21:58.165Z,18.90
2017-07-14T14:24:27.242Z,18.90
2017-07-14T14:26:56.334Z,18.94
2017-07-14T14:29:25.692Z,18.99
2017-07-14T14:31:54.757Z,19.01
2017-07-14T14:34:23.821Z,19.04
2017-07-14T14:36:52.881Z,19.05
2017-07-14T14:39:21.976Z,19.04
2017-07-14T14:41:51.058Z,19.05
2017-07-14T14:44:20.122Z,19.11
2017-07-14T14:46:49.196Z,19.14
2017-07-14T14:49:18.264Z,19.12
2017-07-14T14:51:47.379Z,19.20
2017-07-14T14:54:16.486Z,19.27
2017-07-14T14:56:45.561Z,19.39
2017-07-14T14:59:14.656Z,19.48
2017-07-14T15:01:43.718Z,19.50
2017-07-14T15:04:12.818Z,19.52
2017-07-14T15:06:41.893Z,19.47
2017-07-14T15:09:10.957Z,19.49
2017-07-14T15:11:40.038Z,19.47
2017-07-14T15:14:09.131Z,19.42
2017-07-14T15:16:38.200Z,19.31
2017-07-14T15:19:07.262Z,19.27
2017-07-14T15:21:36.363Z,19.23
2017-07-14T15:24:05.406Z,19.12
2017-07-14T15:26:34.472Z,19.14
2017-07-14T15:29:03.553Z,19.11
2017-07-14T15:31:32.634Z,19.01
2017-07-14T15:34:01.761Z,19.01
2017-07-14T15:36:30.840Z,18.96
2017-07-14T15:38:59.887Z,18.91
2017-07-14T15:41:28.984Z,18.90
2017-07-14T15:43:58.097Z,18.83
2017-07-14T15:46:27.187Z,18.85
2017-07-14T15:48:56.233Z,18.83
2017-07-14T15:51:25.288Z,18.82
2017-07-14T15:53:54.373Z,18.85
2017-07-14T15:56:23.435Z,18.94
2017-07-14T15:58:52.491Z,18.96
2017-07-14T16:01:21.549Z,18.85
2017-07-14T16:03:50.616Z,18.71
2017-07-14T16:06:19.698Z,18.57
2017-07-14T16:08:48.847Z,18.56
2017-07-14T16:11:17.952Z,18.56
2017-07-14T16:13:47.018Z,18.57
2017-07-14T16:16:16.141Z,18.54
2017-07-14T16:18:45.218Z,18.52
2017-07-14T16:21:14.397Z,18.53
2017-07-14T16:23:43.468Z,18.54
2017-07-14T16:26:12.556Z,18.49
2017-07-14T16:28:41.616Z,18.52
2017-07-14T16:31:10.700Z,18.45
2017-07-14T16:33:39.797Z,18.47
2017-07-14T16:36:08.952Z,18.41
2017-07-14T16:38:38.028Z,18.33
2017-07-14T16:41:07.108Z,18.31
2017-07-14T16:43:36.173Z,18.35
2017-07-14T16:46:05.256Z,18.37
2017-07-14T16:48:34.302Z,18.38
2017-07-14T16:51:03.386Z,18.47
2017-07-14T16:53:32.508Z,18.54
2017-07-14T16:56:01.548Z,18.61
2017-07-14T16:58:30.616Z,18.60
2017-07-14T17:00:59.679Z,18.64
2017-07-14T17:03:28.709Z,18.62
2017-07-14T17:05:57.801Z,18.66
2017-07-14T17:08:26.894Z,18.66
2017-07-14T17:10:55.970Z,18.62
2017-07-14T17:13:25.044Z,18.56
2017-07-14T17:15:54.115Z,18.48
2017-07-14T17:18:23.197Z,18.46
2017-07-14T17:20:52.257Z,18.43
2017-07-14T17:23:21.316Z,18.34
2017-07-14T17:25:50.380Z,18.32
2017-07-14T17:28:19.649Z,18.24
2017-07-14T17:30:48.720Z,18.19
2017-07-14T17:33:17.783Z,18.21
2017-07-14T17:35:47.867Z,18.23
2017-07-14T17:38:16.945Z,18.19
2017-07-14T17:40:46.004Z,18.20
2017-07-14T17:43:15.125Z,18.18
2017-07-14T17:45:44.200Z,18.22
2017-07-14T17:48:13.294Z,18.26
2017-07-14T17:50:42.369Z,18.26
2017-07-14T17:53:11.447Z,18.26
2017-07-14T17:55:40.529Z,18.42
2017-07-14T17:58:09.660Z,18.43
2017-07-14T18:00:38.737Z,18.46
2017-07-14T18:03:07.793Z,18.50
2017-07-14T18:05:36.856Z,18.45
2017-07-14T18:08:05.949Z,18.47
2017-07-14T18:10:35.019Z,18.47
2017-07-14T18:13:04.164Z,18.46
2017-07-14T18:15:33.234Z,18.44
2017-07-14T18:18:02.307Z,18.35
2017-07-14T18:20:31.386Z,18.26
2017-07-14T18:23:00.480Z,18.14
2017-07-14T18:25:29.542Z,18.04
2017-07-14T18:27:58.624Z,17.96
2017-07-14T18:30:27.957Z,17.84
2017-07-14T18:32:57.013Z,17.85
2017-07-14T18:35:26.117Z,17.84
2017-07-14T18:37:55.929Z,17.81
2017-07-14T18:40:25.024Z,17.83
2017-07-14T18:42:54.122Z,17.82
2017-07-14T18:45:23.216Z,17.82
2017-07-14T18:47:52.278Z,17.86
2017-07-14T18:50:21.354Z,17.85
2017-07-14T18:52:50.433Z,17.75
2017-07-14T18:55:19.717Z,17.67
2017-07-14T18:57:49.045Z,17.62
2017-07-14T19:00:18.157Z,17.62
2017-07-14T19:02:47.313Z,17.60
2017-07-14T19:05:16.387Z,17.58
2017-07-14T19:07:45.443Z,17.58
2017-07-14T19:10:14.559Z,17.57
2017-07-14T19:12:44.601Z,17.51
2017-07-14T19:15:13.681Z,17.38
2017-07-14T19:17:44.599Z,17.30
2017-07-14T19:20:15.538Z,17.33
2017-07-14T19:22:44.599Z,17.28
2017-07-14T19:25:13.718Z,17.19
2017-07-14T19:27:42.749Z,17.13
2017-07-14T19:30:12.005Z,17.06
2017-07-14T19:32:41.067Z,17.02
2017-07-14T19:35:10.513Z,16.93
2017-07-14T19:37:39.893Z,16.84
2017-07-14T19:40:08.994Z,16.87
2017-07-14T19:42:38.042Z,16.80
2017-07-14T19:45:07.107Z,16.81
2017-07-14T19:47:36.223Z,16.78
2017-07-14T19:50:05.448Z,16.73
2017-07-14T19:52:34.536Z,16.70
2017-07-14T19:55:03.588Z,16.70
2017-07-14T19:57:32.647Z,16.69
2017-07-14T20:00:01.765Z,16.67
2017-07-14T20:02:31.638Z,16.66
2017-07-14T20:05:00.693Z,16.72
2017-07-14T20:07:30.562Z,16.75
2017-07-14T20:09:59.674Z,16.75
2017-07-14T20:12:28.715Z,16.68
2017-07-14T20:14:58.535Z,16.63
2017-07-14T20:17:28.469Z,16.56
2017-07-14T20:19:57.541Z,16.52
2017-07-14T20:22:26.587Z,16.48
2017-07-14T20:24:55.677Z,16.49
2017-07-14T20:27:24.746Z,16.39
2017-07-14T20:29:53.817Z,16.33
2017-07-14T20:32:23.636Z,16.24
2017-07-14T20:34:52.717Z,16.29
2017-07-14T20:37:21.757Z,16.24
2017-07-14T20:39:50.844Z,16.26
2017-07-14T20:42:19.917Z,16.19
2017-07-14T20:44:48.993Z,16.16
2017-07-14T20:47:18.074Z,16.11
2017-07-14T20:49:47.141Z,16.00
2017-07-14T20:52:16.484Z,15.92
2017-07-14T20:54:45.586Z,15.97
2017-07-14T20:57:14.958Z,16.01
2017-07-14T20:59:44.036Z,16.00
2017-07-14T21:02:13.372Z,15.99
2017-07-14T21:04:42.449Z,15.93
2017-07-14T21:07:11.531Z,15.88
2017-07-14T21:09:40.584Z,15.87
2017-07-14T21:12:09.654Z,15.89
2017-07-14T21:14:38.747Z,15.92
2017-07-14T21:17:08.139Z,15.91
2017-07-14T21:19:37.220Z,15.90
2017-07-14T21:22:06.337Z,15.94
2017-07-14T21:24:35.407Z,15.96
2017-07-14T21:27:04.520Z,15.98
2017-07-14T21:29:33.545Z,16.00
2017-07-14T21:32:03.441Z,16.01
2017-07-14T21:34:32.515Z,16.03
2017-07-14T21:37:01.552Z,16.04
2017-07-14T21:39:31.420Z,16.10
2017-07-14T21:42:00.484Z,16.11
2017-07-14T21:44:29.569Z,16.13
2017-07-14T21:46:59.398Z,16.12
2017-07-14T21:49:28.457Z,16.02
2017-07-14T21:51:57.605Z,15.99
2017-07-14T21:54:28.636Z,15.99
2017-07-14T21:56:57.775Z,15.96
2017-07-14T21:59:26.829Z,15.90
2017-07-14T22:01:56.081Z,15.85
2017-07-14T22:04:25.922Z,15.82
2017-07-14T22:06:54.984Z,15.81
2017-07-14T22:09:24.849Z,15.84
2017-07-14T22:11:53.940Z,15.77
2017-07-14T22:14:22.996Z,15.76
2017-07-14T22:16:52.840Z,15.78
2017-07-14T22:19:21.876Z,15.74
2017-07-14T22:21:50.924Z,15.72
2017-07-14T22:24:20.004Z,15.73
2017-07-14T22:26:49.095Z,15.71
2017-07-14T22:29:18.928Z,15.64
2017-07-14T22:31:47.965Z,15.61
2017-07-14T22:34:17.908Z,15.57
2017-07-14T22:36:46.949Z,15.54
2017-07-14T22:39:16.028Z,15.50
2017-07-14T22:41:45.092Z,15.46
2017-07-14T22:44:14.914Z,15.42
2017-07-14T22:46:43.996Z,15.35
2017-07-14T22:49:14.224Z,15.32
2017-07-14T22:51:43.308Z,15.32
2017-07-14T22:54:12.375Z,15.28
2017-07-14T22:56:41.439Z,15.20
2017-07-14T22:59:10.554Z,15.20
2017-07-14T23:01:39.629Z,15.24
2017-07-14T23:04:09.201Z,15.21
2017-07-14T23:06:38.236Z,15.13
2017-07-14T23:09:07.320Z,15.17
2017-07-14T23:11:36.382Z,15.16
2017-07-14T23:14:05.448Z,15.12
2017-07-14T23:16:34.537Z,15.10
2017-07-14T23:19:03.572Z,15.08
2017-07-14T23:21:32.644Z,15.05
2017-07-14T23:24:01.738Z,15.01
2017-07-14T23:26:30.796Z,14.97
2017-07-14T23:28:59.893Z,14.99
2017-07-14T23:31:28.954Z,14.95
2017-07-14T23:33:58.833Z,14.97
2017-07-14T23:36:27.905Z,14.97
2017-07-14T23:38:56.957Z,14.87
2017-07-14T23:41:26.053Z,14.88
2017-07-14T23:43:55.870Z,14.88
2017-07-14T23:46:25.727Z,14.85
2017-07-14T23:48:54.802Z,14.84
2017-07-14T23:51:26.841Z,14.88
2017-07-14T23:53:56.791Z,14.83
2017-07-14T23:56:25.845Z,14.84
2017-07-14T23:58:55.697Z,14.87
